Time;durP1;ratioP1;P1;durP2;ratioP2;P2;SDS_P1;SDS_P2;PMS_P1;PMS_P2;Temp;Humidity;BMP_temperature;BMP_pressure;BME280_temperature;BME280_humidity;BME280_pressure;Samples;Min_cycle;Max_cycle;Signal;HPM_P1;HPM_P2
2021/03/04 00:00:58;;;;;;;17.10;6.70;;;;;;;2.50;64.25;98599.86;1660265;86;21222;-65
2021/03/04 00:03:26;;;;;;;16.15;6.70;;;;;;;2.44;65.24;98598.06;1660047;85;21209;-64
2021/03/04 00:05:54;;;;;;;18.73;7.35;;;;;;;2.38;63.76;98594.90;1659957;85;21151;-62
2021/03/04 00:08:22;;;;;;;9.10;5.45;;;;;;;2.33;64.36;98585.80;1659947;85;21231;-63
2021/03/04 00:10:51;;;;;;;13.30;6.92;;;;;;;2.23;66.69;98590.98;1660070;85;21170;-63
2021/03/04 00:13:20;;;;;;;11.33;6.00;;;;;;;2.15;65.30;98589.25;1659997;86;21242;-64
2021/03/04 00:15:50;;;;;;;10.58;5.30;;;;;;;2.08;65.90;98589.17;1659987;85;21186;-63
2021/03/04 00:18:19;;;;;;;8.80;5.72;;;;;;;2.06;65.44;98584.59;1660026;85;21249;-64
2021/03/04 00:20:52;;;;;;;12.10;5.03;;;;;;;2.05;66.79;98581.20;1660006;85;21597;-64
2021/03/04 00:23:20;;;;;;;10.13;4.78;;;;;;;2.06;64.25;98581.59;1660421;85;21195;-63
2021/03/04 00:25:48;;;;;;;11.90;4.05;;;;;;;2.06;65.99;98575.19;1660088;85;21564;-64
2021/03/04 00:28:18;;;;;;;8.50;5.20;;;;;;;2.08;63.61;98575.09;1660022;85;21632;-66
2021/03/04 00:30:46;;;;;;;6.75;4.20;;;;;;;2.09;63.14;98566.06;1625308;87;21193;-65
2021/03/04 00:33:14;;;;;;;10.23;5.28;;;;;;;2.11;63.13;98563.40;1625435;88;21189;-64
2021/03/04 00:35:43;;;;;;;8.25;4.40;;;;;;;2.13;65.14;98562.89;1625473;87;21217;-65
2021/03/04 00:38:12;;;;;;;10.18;5.78;;;;;;;2.11;65.80;98562.95;1611758;88;21195;-64
2021/03/04 00:40:40;;;;;;;12.07;5.40;;;;;;;2.08;65.23;98555.42;1627982;88;21329;-65
2021/03/04 00:43:08;;;;;;;13.78;7.10;;;;;;;2.05;65.17;98556.03;1625431;87;21214;-64
2021/03/04 00:45:36;;;;;;;11.10;7.45;;;;;;;2.01;64.79;98555.36;1611447;89;21190;-64
2021/03/04 00:48:18;;;;;;;17.82;8.35;;;;;;;1.99;64.29;98547.35;1644025;86;21319;-66
2021/03/04 00:50:47;;;;;;;8.38;5.17;;;;;;;1.96;63.98;98550.07;1638514;87;21167;-62
2021/03/04 00:53:15;;;;;;;14.20;8.18;;;;;;;1.92;64.30;98550.67;1638583;87;21231;-65
2021/03/04 00:56:03;;;;;;;21.40;8.03;;;;;;;1.88;64.23;98550.00;1638810;87;21168;-64
2021/03/04 00:58:31;;;;;;;14.28;7.40;;;;;;;1.86;63.53;98547.14;1673033;86;21608;-63
2021/03/04 01:00:59;;;;;;;14.70;5.35;;;;;;;1.79;65.77;98541.95;1673391;86;21237;-65
2021/03/04 01:03:27;;;;;;;10.65;5.67;;;;;;;1.73;66.95;98540.50;1670790;86;21174;-65
2021/03/04 01:05:56;;;;;;;12.65;5.45;;;;;;;1.69;66.52;98536.88;1670565;86;21139;-64
2021/03/04 01:08:24;;;;;;;15.05;6.15;;;;;;;1.69;65.71;98542.00;1670662;86;21226;-65
2021/03/04 01:10:52;;;;;;;12.18;7.28;;;;;;;1.67;65.46;98532.30;1670610;86;21195;-65
2021/03/04 01:13:23;;;;;;;12.93;6.05;;;;;;;1.66;65.51;98528.07;1670700;86;21179;-65
2021/03/04 01:15:52;;;;;;;10.30;6.47;;;;;;;1.62;65.48;98527.84;1670561;86;21194;-64
2021/03/04 01:18:22;;;;;;;10.68;5.85;;;;;;;1.59;66.30;98526.71;1669587;85;21202;-64
2021/03/04 01:20:50;;;;;;;10.63;6.20;;;;;;;1.57;65.40;98523.38;1670452;86;21579;-65
2021/03/04 01:23:18;;;;;;;13.15;5.53;;;;;;;1.53;65.23;98526.55;1670591;86;21170;-64
2021/03/04 01:25:50;;;;;;;11.33;5.92;;;;;;;1.51;65.11;98516.01;1670472;86;21178;-68
2021/03/04 01:28:18;;;;;;;10.28;6.00;;;;;;;1.49;65.46;98516.52;1670515;85;21179;-69
2021/03/04 01:30:46;;;;;;;7.37;5.33;;;;;;;1.47;64.50;98517.89;1670607;86;21174;-64
2021/03/04 01:33:16;;;;;;;10.82;6.00;;;;;;;1.45;64.48;98513.28;1670311;85;21191;-64
2021/03/04 01:35:47;;;;;;;9.40;5.42;;;;;;;1.43;66.43;98505.69;1670512;86;21221;-65
2021/03/04 01:38:16;;;;;;;10.93;5.78;;;;;;;1.39;67.98;98504.63;1670826;86;21635;-64
2021/03/04 01:40:45;;;;;;;8.48;5.30;;;;;;;1.33;66.86;98502.34;1670643;86;21266;-64
2021/03/04 01:43:13;;;;;;;8.50;4.35;;;;;;;1.33;66.85;98498.50;1670680;86;21175;-65
2021/03/04 01:45:41;;;;;;;8.50;4.15;;;;;;;1.35;66.70;98500.11;1670529;86;21165;-64
2021/03/04 01:48:10;;;;;;;9.63;4.72;;;;;;;1.33;66.09;98499.33;1670865;86;21642;-65
2021/03/04 01:50:39;;;;;;;11.15;5.95;;;;;;;1.32;66.62;98492.55;1670599;85;21624;-64
2021/03/04 01:53:07;;;;;;;8.70;4.75;;;;;;;1.31;66.01;98490.09;1670641;86;21583;-65
2021/03/04 01:55:36;;;;;;;15.28;6.22;;;;;;;1.29;66.14;98484.20;1670767;86;21202;-64
2021/03/04 01:58:05;;;;;;;9.60;5.22;;;;;;;1.29;66.71;98485.47;1670465;84;21154;-66
2021/03/04 02:00:33;;;;;;;12.35;5.75;;;;;;;1.20;69.52;98488.04;1670659;86;21218;-65
2021/03/04 02:03:01;;;;;;;16.82;5.58;;;;;;;1.15;70.12;98481.47;1670449;86;21180;-65
2021/03/04 02:05:30;;;;;;;7.80;4.05;;;;;;;1.11;70.15;98477.40;1670644;86;21183;-66
2021/03/04 02:08:22;;;;;;;11.30;5.15;;;;;;;1.10;69.01;98479.13;1670606;85;21178;-65
2021/03/04 02:11:03;;;;;;;10.58;4.62;;;;;;;1.13;70.43;98482.00;1670575;85;21170;-65
2021/03/04 02:13:42;;;;;;;7.03;4.40;;;;;;;1.14;69.53;98469.57;1664184;85;21183;-65
2021/03/04 02:19:48;;;;;;;6.45;4.53;;;;;;;1.22;68.75;98464.92;1635360;86;21176;-66
2021/03/04 02:22:55;;;;;;;8.58;5.17;;;;;;;1.21;68.12;98456.42;1635347;88;21176;-65
2021/03/04 02:25:51;;;;;;;10.85;5.78;;;;;;;1.23;66.83;98447.41;1670479;85;21583;-65
2021/03/04 02:28:26;;;;;;;8.98;4.97;;;;;;;1.22;66.75;98448.30;1670558;84;21183;-63
2021/03/04 02:30:59;;;;;;;5.85;4.42;;;;;;;1.19;64.29;98440.33;1670430;84;21186;-65
2021/03/04 02:33:34;;;;;;;9.10;4.50;;;;;;;1.14;64.99;98435.05;1670648;84;21586;-64
2021/03/04 02:36:10;;;;;;;15.93;6.03;;;;;;;1.14;64.31;98438.87;1670766;85;21253;-67
2021/03/04 02:38:40;;;;;;;11.85;6.47;;;;;;;1.10;65.75;98434.81;1670431;85;21207;-67
2021/03/04 02:41:14;;;;;;;9.33;4.92;;;;;;;1.05;66.55;98419.67;1669634;84;21155;-66
2021/03/04 02:43:43;;;;;;;12.40;5.37;;;;;;;1.02;66.59;98418.55;1670856;84;21190;-66
2021/03/04 02:46:14;;;;;;;14.83;4.87;;;;;;;1.01;66.64;98413.52;1670498;85;21190;-66
2021/03/04 02:48:48;;;;;;;7.15;3.98;;;;;;;0.94;66.73;98406.13;1667731;86;21194;-66
2021/03/04 02:51:17;;;;;;;7.72;4.45;;;;;;;0.96;67.22;98408.63;1670553;85;21178;-66
2021/03/04 02:53:45;;;;;;;8.73;4.80;;;;;;;0.94;67.05;98408.69;1670769;85;21168;-66
2021/03/04 02:56:14;;;;;;;7.50;3.92;;;;;;;0.93;67.44;98405.73;1671377;84;21182;-64
2021/03/04 02:58:45;;;;;;;9.05;5.42;;;;;;;0.90;67.17;98398.67;1671636;84;21454;-65
2021/03/04 03:01:15;;;;;;;8.73;4.28;;;;;;;0.88;66.99;98394.09;1671512;85;21574;-66
2021/03/04 03:03:46;;;;;;;11.00;6.03;;;;;;;0.88;66.69;98394.92;1671190;84;21647;-70
2021/03/04 03:06:22;;;;;;;14.53;4.60;;;;;;;0.88;67.05;98395.38;1688443;83;21174;-68
2021/03/04 03:08:53;;;;;;;10.63;5.58;;;;;;;0.85;66.84;98387.85;1705709;83;22455;-65
2021/03/04 03:11:29;;;;;;;11.28;5.62;;;;;;;0.82;66.96;98392.64;1714280;84;21555;-66
2021/03/04 03:14:00;;;;;;;10.93;6.62;;;;;;;0.82;67.22;98390.53;1713500;84;21284;-66
2021/03/04 03:16:37;;;;;;;12.18;5.60;;;;;;;0.80;66.52;98388.51;1712564;82;21190;-65
2021/03/04 03:19:07;;;;;;;10.28;5.87;;;;;;;0.78;66.44;98388.56;1711961;82;21158;-65
2021/03/04 03:21:36;;;;;;;7.85;5.30;;;;;;;0.75;68.80;98382.33;1711988;84;21240;-65
2021/03/04 03:24:07;;;;;;;10.18;6.60;;;;;;;0.72;68.32;98380.37;1711706;84;21166;-64
2021/03/04 03:26:36;;;;;;;14.03;7.53;;;;;;;0.72;68.32;98380.37;1711998;82;21174;-64
2021/03/04 03:29:04;;;;;;;14.45;6.40;;;;;;;0.66;69.31;98374.28;1711809;84;21177;-64
2021/03/04 03:31:37;;;;;;;9.90;5.28;;;;;;;0.50;69.25;98353.72;1711677;84;21666;-64
2021/03/04 03:34:08;;;;;;;8.48;5.28;;;;;;;0.57;69.19;98365.30;1711937;82;21166;-64
2021/03/04 03:36:41;;;;;;;16.15;4.53;;;;;;;0.60;68.81;98366.88;1712133;84;21728;-65
2021/03/04 03:39:12;;;;;;;9.80;5.83;;;;;;;0.59;68.75;98366.05;1711938;82;21634;-65
2021/03/04 03:41:42;;;;;;;9.58;5.15;;;;;;;0.59;70.21;98363.49;1712201;82;21178;-66
2021/03/04 03:44:17;;;;;;;7.22;5.45;;;;;;;0.53;69.81;98365.06;1711996;83;21182;-68
2021/03/04 03:46:50;;;;;;;12.45;6.37;;;;;;;0.49;69.37;98349.50;1711984;82;21174;-64
2021/03/04 03:49:19;;;;;;;8.70;5.22;;;;;;;0.55;69.21;98354.31;1712342;84;21316;-66
2021/03/04 03:51:48;;;;;;;9.93;6.08;;;;;;;0.56;68.92;98347.03;1712156;82;21138;-66
2021/03/04 03:54:17;;;;;;;11.48;7.08;;;;;;;0.55;68.68;98347.92;1711974;83;21363;-66
2021/03/04 03:56:46;;;;;;;11.78;7.30;;;;;;;0.50;68.42;98344.77;1712020;82;21138;-67
2021/03/04 03:59:16;;;;;;;13.70;7.05;;;;;;;0.53;68.50;98352.73;1712380;83;21245;-69
2021/03/04 04:01:46;;;;;;;13.25;5.28;;;;;;;0.50;68.83;98351.61;1712076;83;21149;-67
2021/03/04 04:04:15;;;;;;;11.08;5.85;;;;;;;0.39;70.30;98350.80;1712101;82;21721;-66
2021/03/04 04:06:44;;;;;;;10.53;6.42;;;;;;;0.39;70.30;98350.80;1683200;83;21136;-64
2021/03/04 04:09:13;;;;;;;8.35;5.30;;;;;;;0.34;70.99;98353.59;1688069;85;21137;-67
2021/03/04 04:11:41;;;;;;;7.15;5.00;;;;;;;0.33;71.40;98356.20;1688364;85;21220;-67
2021/03/04 04:14:10;;;;;;;10.98;6.50;;;;;;;0.32;71.09;98347.71;1688297;85;21168;-66
2021/03/04 04:16:42;;;;;;;7.12;4.75;;;;;;;0.32;71.09;98347.71;1688427;85;21252;-64
2021/03/04 04:19:11;;;;;;;6.83;3.80;;;;;;;0.35;70.98;98339.90;1688772;85;21164;-70
2021/03/04 04:21:53;;;;;;;12.75;4.53;;;;;;;0.35;70.98;98339.90;1688773;85;21152;-64
2021/03/04 04:24:27;;;;;;;9.58;4.62;;;;;;;0.36;71.10;98344.12;1687074;85;21176;-62
2021/03/04 04:27:04;;;;;;;10.00;7.05;;;;;;;0.38;70.44;98328.28;1686876;85;21149;-62
2021/03/04 04:29:32;;;;;;;8.70;6.17;;;;;;;0.38;70.44;98328.28;1686789;85;21133;-62
2021/03/04 04:32:01;;;;;;;7.95;5.00;;;;;;;0.43;70.50;98328.88;1686914;85;21192;-65
2021/03/04 04:34:30;;;;;;;6.87;4.80;;;;;;;0.46;69.44;98327.48;1686537;85;21185;-64
2021/03/04 04:36:59;;;;;;;16.00;6.45;;;;;;;0.46;69.44;98327.48;1686636;85;21585;-64
2021/03/04 04:39:28;;;;;;;7.67;5.00;;;;;;;0.48;69.38;98326.12;1686656;85;21589;-66
2021/03/04 04:41:57;;;;;;;10.43;6.47;;;;;;;0.49;69.01;98318.84;1686599;85;21660;-66
2021/03/04 04:44:25;;;;;;;8.75;5.67;;;;;;;0.50;68.97;98317.11;1686654;85;21585;-64
2021/03/04 04:46:55;;;;;;;28.87;15.03;;;;;;;0.43;68.82;98298.66;1686569;85;21244;-65
2021/03/04 04:49:24;;;;;;;60.52;32.50;;;;;;;0.51;69.04;98307.28;1686564;85;21604;-64
2021/03/04 04:51:53;;;;;;;29.85;16.48;;;;;;;0.48;69.07;98295.45;1686694;84;21156;-69
2021/03/04 04:54:25;;;;;;;10.58;5.90;;;;;;;0.48;69.07;98295.45;1685212;85;21157;-67
2021/03/04 04:56:54;;;;;;;13.80;8.05;;;;;;;0.46;70.44;98291.72;1686658;85;21179;-64
2021/03/04 04:59:22;;;;;;;16.70;6.20;;;;;;;0.44;70.57;98281.17;1687256;85;21550;-65
2021/03/04 05:01:50;;;;;;;16.67;8.40;;;;;;;0.43;69.97;98290.55;1687064;85;21149;-77
2021/03/04 05:04:20;;;;;;;9.65;5.67;;;;;;;0.42;70.44;98279.98;1686652;85;21334;-65
2021/03/04 05:06:48;;;;;;;8.90;6.33;;;;;;;0.39;70.76;98285.21;1706490;83;21131;-64
2021/03/04 05:09:16;;;;;;;12.63;4.85;;;;;;;0.41;70.62;98290.27;1710740;82;21284;-67
2021/03/04 05:11:45;;;;;;;8.98;5.60;;;;;;;0.41;70.65;98288.53;1710908;82;21201;-65
2021/03/04 05:14:14;;;;;;;9.10;4.95;;;;;;;0.43;70.43;98284.61;1710858;83;21301;-65
2021/03/04 05:16:43;;;;;;;9.93;5.40;;;;;;;0.40;71.27;98275.83;1710796;83;21203;-65
2021/03/04 05:19:13;;;;;;;8.88;4.33;;;;;;;0.41;70.87;98268.55;1710357;84;21290;-64
2021/03/04 05:21:42;;;;;;;12.33;5.28;;;;;;;0.44;70.00;98265.39;1709657;82;21228;-64
2021/03/04 05:24:11;;;;;;;8.83;5.08;;;;;;;0.44;70.00;98265.39;1709699;83;21194;-64
2021/03/04 05:26:40;;;;;;;10.68;6.35;;;;;;;0.52;69.80;98270.14;1709670;83;21623;-64
2021/03/04 05:29:09;;;;;;;15.32;6.15;;;;;;;0.57;69.82;98277.59;1710014;82;21170;-64
2021/03/04 05:31:37;;;;;;;9.43;5.28;;;;;;;0.61;69.36;98277.81;1710071;82;21300;-64
2021/03/04 05:34:05;;;;;;;13.18;6.92;;;;;;;0.67;69.37;98269.84;1710233;83;21209;-64
2021/03/04 05:36:39;;;;;;;8.65;5.05;;;;;;;0.67;69.37;98269.84;1710460;82;21297;-64
2021/03/04 05:39:08;;;;;;;10.80;5.35;;;;;;;0.73;69.40;98263.17;1710567;82;21607;-63
2021/03/04 05:41:38;;;;;;;12.10;4.47;;;;;;;0.73;69.40;98263.17;1710440;84;21157;-64
2021/03/04 05:44:07;;;;;;;15.28;6.47;;;;;;;0.73;70.80;98264.45;1710613;82;21210;-65
2021/03/04 05:46:57;;;;;;;19.20;6.00;;;;;;;0.68;70.19;98256.17;1710520;84;21135;-65
2021/03/04 05:49:30;;;;;;;13.65;7.10;;;;;;;0.72;69.73;98252.12;1701556;83;21638;-64
2021/03/04 05:52:01;;;;;;;16.37;7.47;;;;;;;0.78;69.86;98256.91;1701491;84;21659;-64
2021/03/04 05:54:35;;;;;;;12.93;6.75;;;;;;;0.80;70.33;98265.80;1701350;84;21618;-65
2021/03/04 05:57:06;;;;;;;13.43;7.65;;;;;;;0.72;71.72;98262.34;1701447;84;21170;-65
2021/03/04 05:59:35;;;;;;;10.48;6.03;;;;;;;0.62;72.12;98264.98;1701467;84;21218;-66
2021/03/04 06:02:08;;;;;;;11.73;5.80;;;;;;;0.63;72.33;98256.39;1701307;84;21162;-64
2021/03/04 06:04:39;;;;;;;11.35;6.90;;;;;;;0.64;72.69;98252.94;1701340;84;21139;-65
2021/03/04 06:07:10;;;;;;;10.28;6.78;;;;;;;0.61;72.68;98247.16;1701415;84;21194;-66
2021/03/04 06:09:38;;;;;;;11.25;6.12;;;;;;;0.66;72.35;98250.32;1701533;84;21194;-64
2021/03/04 06:12:28;;;;;;;13.43;6.85;;;;;;;0.67;72.41;98254.51;1701775;84;21198;-64
2021/03/04 06:14:57;;;;;;;10.45;7.55;;;;;;;0.68;72.72;98256.17;1701843;84;21645;-64
2021/03/04 06:17:25;;;;;;;11.45;7.60;;;;;;;0.77;72.33;98251.90;1701931;84;21173;-64
2021/03/04 06:19:58;;;;;;;14.07;7.37;;;;;;;0.83;72.08;98246.02;1701370;83;21201;-63
2021/03/04 06:22:31;;;;;;;13.80;8.25;;;;;;;0.86;72.12;98247.14;1701538;83;21230;-63
2021/03/04 06:25:04;;;;;;;12.85;7.53;;;;;;;0.94;71.59;98250.59;1701764;84;21161;-67
2021/03/04 06:27:37;;;;;;;14.60;8.08;;;;;;;1.06;71.32;98248.70;1699223;84;21165;-64
2021/03/04 06:30:13;;;;;;;12.13;7.35;;;;;;;1.16;71.02;98253.75;1702130;84;21165;-66
2021/03/04 06:32:57;;;;;;;12.25;8.03;;;;;;;1.21;70.50;98253.05;1702195;83;21138;-67
2021/03/04 06:35:36;;;;;;;17.00;7.53;;;;;;;1.22;70.60;98252.15;1701385;84;21142;-64
2021/03/04 06:38:20;;;;;;;14.87;8.85;;;;;;;1.29;70.59;98249.64;1702065;84;21174;-64
2021/03/04 06:40:54;;;;;;;22.40;8.98;;;;;;;1.37;70.14;98252.64;1701723;83;21665;-64
2021/03/04 06:43:27;;;;;;;18.57;8.45;;;;;;;1.46;69.98;98255.19;1701712;83;21185;-63
2021/03/04 06:46:25;;;;;;;22.00;9.58;;;;;;;1.49;69.92;98255.02;1701820;83;21147;-64
2021/03/04 06:48:54;;;;;;;13.55;7.45;;;;;;;1.57;69.52;98252.06;1704568;84;21174;-66
2021/03/04 06:51:23;;;;;;;17.07;9.33;;;;;;;1.71;69.20;98256.02;1704576;84;21201;-65
2021/03/04 06:53:53;;;;;;;24.18;8.73;;;;;;;1.83;68.96;98247.66;1704449;83;21165;-65
2021/03/04 06:56:29;;;;;;;10.95;6.72;;;;;;;1.95;68.33;98253.86;1723050;82;21188;-70
2021/03/04 06:59:00;;;;;;;;;;;;;;;2.05;68.39;98253.31;1731880;82;21155;-65
2021/03/04 07:01:29;;;;;;;15.30;8.23;;;;;;;2.16;67.80;98249.70;1734358;82;20191;-64
2021/03/04 07:03:58;;;;;;;19.55;10.13;;;;;;;2.26;67.42;98247.45;1735977;81;21214;-65
2021/03/04 07:06:28;;;;;;;13.90;8.30;;;;;;;2.03;70.20;98246.59;1736364;82;21172;-64
2021/03/04 07:08:56;;;;;;;16.35;10.25;;;;;;;2.13;69.65;98238.35;1737233;82;21144;-63
2021/03/04 07:11:26;;;;;;;16.55;7.85;;;;;;;2.15;69.81;98239.08;1737251;81;21166;-65
2021/03/04 07:13:54;;;;;;;20.97;7.92;;;;;;;2.31;68.46;98240.34;1737402;82;21223;-69
2021/03/04 07:16:33;;;;;;;20.25;9.78;;;;;;;2.41;68.10;98235.55;1737550;81;21596;-70
2021/03/04 07:19:16;;;;;;;14.53;8.35;;;;;;;2.28;68.87;98231.55;1731351;81;21243;-66
2021/03/04 07:21:49;;;;;;;16.32;10.65;;;;;;;2.37;68.47;98225.44;1737492;82;21144;-65
2021/03/04 07:24:21;;;;;;;23.55;9.90;;;;;;;2.52;67.90;98226.80;1737962;82;21223;-73
2021/03/04 07:26:51;;;;;;;14.53;7.75;;;;;;;2.67;66.74;98223.36;1737795;81;21703;-64
2021/03/04 07:29:27;;;;;;;16.25;9.80;;;;;;;2.79;65.49;98227.34;1708338;82;21175;-64
2021/03/04 07:35:08;;;;;;;20.40;11.08;;;;;;;2.99;65.55;98214.64;1758985;80;21171;-67
2021/03/04 07:38:00;;;;;;;20.10;11.05;;;;;;;3.09;65.33;98211.06;1762505;79;21163;-64
2021/03/04 07:40:37;;;;;;;22.42;10.98;;;;;;;3.12;65.10;98211.70;1669964;84;21209;-65
2021/03/04 07:43:51;;;;;;;27.27;11.68;;;;;;;3.19;64.92;98212.19;1612410;88;21196;-65
2021/03/04 07:46:36;;;;;;;15.43;8.38;;;;;;;3.25;64.64;98200.27;1772664;81;21146;-65
2021/03/04 07:49:12;;;;;;;32.88;16.00;;;;;;;3.34;64.46;98195.88;1764226;81;21146;-69
2021/03/04 07:54:29;;;;;;;22.02;10.32;;;;;;;3.19;65.65;98194.23;1734574;82;21184;-68
2021/03/04 07:57:11;;;;;;;18.92;9.70;;;;;;;3.14;65.64;98187.25;1733801;83;21192;-65
2021/03/04 08:00:14;;;;;;;19.55;9.53;;;;;;;3.34;65.06;98189.00;1734436;83;21716;-68
2021/03/04 08:02:45;;;;;;;19.95;9.85;;;;;;;3.39;64.90;98180.99;1721211;83;21156;-65
2021/03/04 08:05:16;;;;;;;17.87;8.75;;;;;;;3.54;64.16;98189.05;1721500;83;21140;-65
2021/03/04 08:08:17;;;;;;;17.60;9.45;;;;;;;3.67;64.26;98191.70;1721586;83;21662;-65
2021/03/04 08:11:08;;;;;;;25.80;10.08;;;;;;;3.70;64.04;98186.36;1730233;83;21146;-64
2021/03/04 08:13:39;;;;;;;22.85;10.45;;;;;;;3.53;64.83;98178.89;1764631;81;21325;-63
2021/03/04 08:16:16;;;;;;;24.30;11.15;;;;;;;3.30;65.85;98170.02;1764534;81;21159;-71
2021/03/04 08:19:00;;;;;;;23.57;9.60;;;;;;;3.42;65.46;98167.17;1701172;83;21185;-64
2021/03/04 08:21:28;;;;;;;16.90;8.83;;;;;;;3.62;64.80;98163.72;1753858;82;21302;-65
2021/03/04 08:23:57;;;;;;;17.67;9.08;;;;;;;3.74;64.37;98153.98;1701298;84;21181;-65
2021/03/04 08:26:28;;;;;;;18.05;9.70;;;;;;;3.83;64.17;98157.27;1753461;82;21117;-66
2021/03/04 08:29:10;;;;;;;19.57;8.63;;;;;;;4.03;64.41;98156.47;1730288;83;21203;-64
2021/03/04 08:31:48;;;;;;;14.18;8.63;;;;;;;4.20;63.32;98151.89;1701419;84;21191;-65
2021/03/04 08:34:17;;;;;;;25.35;10.28;;;;;;;4.37;62.56;98149.97;1753505;82;21128;-66
2021/03/04 08:36:50;;;;;;;18.60;9.28;;;;;;;4.35;62.74;98151.84;1701318;84;21161;-65
2021/03/04 08:39:21;;;;;;;21.50;10.08;;;;;;;4.51;62.16;98149.46;1753484;82;21164;-64
2021/03/04 08:41:50;;;;;;;22.55;10.50;;;;;;;4.57;61.83;98145.64;1753737;82;21561;-65
2021/03/04 08:44:19;;;;;;;27.17;10.98;;;;;;;4.67;61.70;98142.81;1767076;81;21443;-65
2021/03/04 08:46:49;;;;;;;22.05;9.98;;;;;;;4.74;60.79;98139.77;1766861;81;21599;-64
2021/03/04 08:49:24;;;;;;;20.52;10.53;;;;;;;4.73;61.43;98135.54;1767020;81;21579;-65
2021/03/04 08:51:53;;;;;;;25.40;9.98;;;;;;;4.60;61.58;98138.55;1701337;84;21166;-65
2021/03/04 08:54:24;;;;;;;16.23;7.25;;;;;;;4.53;61.57;98133.45;1766970;81;21619;-65
2021/03/04 08:57:03;;;;;;;22.35;9.55;;;;;;;4.58;61.06;98130.58;1766907;81;21155;-66
2021/03/04 08:59:32;;;;;;;14.13;7.95;;;;;;;4.36;62.50;98129.86;1767194;81;21187;-65
2021/03/04 09:02:02;;;;;;;13.43;7.92;;;;;;;4.50;61.82;98126.41;1766834;81;21702;-65
2021/03/04 09:04:31;;;;;;;17.00;8.65;;;;;;;4.35;61.32;98120.53;1766919;81;21345;-65
2021/03/04 09:07:00;;;;;;;13.03;8.63;;;;;;;4.46;61.80;98118.53;1766945;81;21162;-65
2021/03/04 09:09:31;;;;;;;15.50;7.30;;;;;;;4.63;61.37;98122.91;1730344;83;21140;-64
2021/03/04 09:11:59;;;;;;;12.90;8.40;;;;;;;4.76;60.50;98108.77;1762998;81;21379;-65
2021/03/04 09:14:30;;;;;;;16.62;7.83;;;;;;;4.85;60.94;98104.30;1725443;82;21159;-65
2021/03/04 09:17:00;;;;;;;24.12;9.53;;;;;;;5.00;59.93;98106.30;1714382;84;21618;-64
2021/03/04 09:19:39;;;;;;;31.20;12.58;;;;;;;4.85;60.85;98097.05;1752662;82;21167;-64
2021/03/04 09:22:11;;;;;;;17.80;8.73;;;;;;;4.89;61.18;98099.77;1752808;82;21200;-64
2021/03/04 09:24:43;;;;;;;18.27;9.85;;;;;;;5.06;60.65;98091.24;1685974;85;21530;-65
2021/03/04 09:27:13;;;;;;;26.27;9.15;;;;;;;5.17;60.69;98088.78;1752881;82;21167;-65
2021/03/04 09:29:43;;;;;;;16.25;8.15;;;;;;;5.43;59.92;98087.41;1752886;82;21171;-64
2021/03/04 09:32:14;;;;;;;15.63;9.13;;;;;;;5.58;58.82;98087.62;1752915;82;21158;-68
2021/03/04 09:34:45;;;;;;;18.55;8.88;;;;;;;5.75;58.80;98084.67;1685875;85;21334;-65
2021/03/04 09:37:38;;;;;;;11.83;6.87;;;;;;;5.88;58.24;98079.47;1752746;81;21168;-65
2021/03/04 09:40:24;;;;;;;16.85;7.65;;;;;;;5.93;57.28;98084.66;1648956;87;21673;-66
2021/03/04 09:42:52;;;;;;;13.53;7.03;;;;;;;6.20;56.73;98076.21;1655110;86;21208;-65
2021/03/04 09:45:24;;;;;;;14.93;7.80;;;;;;;6.46;56.05;98078.14;1656866;86;21356;-65
2021/03/04 09:47:53;;;;;;;14.93;6.97;;;;;;;6.57;55.15;98067.04;1677093;85;21229;-66
2021/03/04 09:50:27;;;;;;;17.07;8.20;;;;;;;6.52;54.72;98060.93;1648686;87;21658;-66
2021/03/04 09:53:08;;;;;;;19.20;8.13;;;;;;;6.78;54.12;98056.84;1656943;86;21621;-68
2021/03/04 09:55:45;;;;;;;14.70;6.55;;;;;;;6.71;54.22;98056.95;1656843;86;21327;-65
2021/03/04 09:58:22;;;;;;;13.83;6.80;;;;;;;6.69;54.45;98054.02;1677042;85;21165;-67
2021/03/04 10:01:03;;;;;;;16.60;9.15;;;;;;;6.99;53.53;98047.46;1703792;84;21752;-64
2021/03/04 10:03:38;;;;;;;17.42;7.58;;;;;;;6.86;54.04;98050.16;1731877;83;21184;-65
2021/03/04 10:06:21;;;;;;;16.60;8.63;;;;;;;6.95;53.45;98052.51;1732985;82;21600;-65
2021/03/04 10:08:55;;;;;;;14.13;6.45;;;;;;;7.11;53.11;98037.48;1733276;83;21148;-65
2021/03/04 10:11:25;;;;;;;15.75;7.42;;;;;;;7.33;53.54;98039.20;1733155;83;22084;-64
2021/03/04 10:13:55;;;;;;;16.87;7.75;;;;;;;7.66;53.70;98030.55;1736207;83;21205;-65
2021/03/04 10:16:23;;;;;;;16.82;8.90;;;;;;;7.87;53.82;98030.92;1732744;83;21192;-65
2021/03/04 10:18:53;;;;;;;19.55;9.33;;;;;;;8.08;53.30;98029.19;1732833;83;21183;-65
2021/03/04 10:21:21;;;;;;;18.23;7.20;;;;;;;8.01;53.16;98032.41;1732567;83;21159;-65
2021/03/04 10:23:50;;;;;;;18.92;9.08;;;;;;;8.11;51.24;98021.64;1732495;83;21183;-65
2021/03/04 10:26:18;;;;;;;17.57;9.68;;;;;;;8.04;52.83;98018.74;1732480;83;21155;-65
2021/03/04 10:28:47;;;;;;;11.43;7.75;;;;;;;8.09;52.18;98022.25;1732494;83;21220;-65
2021/03/04 10:31:15;;;;;;;14.13;7.37;;;;;;;8.22;52.02;98016.40;1735881;83;21230;-66
2021/03/04 10:33:43;;;;;;;15.30;7.97;;;;;;;8.56;51.09;98017.84;1732507;83;21151;-65
2021/03/04 10:36:12;;;;;;;15.78;7.90;;;;;;;8.66;50.82;98009.31;1732564;83;21168;-65
2021/03/04 10:38:40;;;;;;;20.35;8.35;;;;;;;8.50;50.75;98005.91;1732608;83;21595;-65
2021/03/04 10:41:09;;;;;;;17.57;8.33;;;;;;;8.82;50.49;97992.36;1736191;83;21664;-65
2021/03/04 10:43:37;;;;;;;14.30;7.22;;;;;;;8.89;50.01;97992.17;1732655;83;21184;-65
2021/03/04 10:46:06;;;;;;;11.63;6.87;;;;;;;8.72;49.52;97982.42;1732567;83;21195;-65
2021/03/04 10:48:34;;;;;;;12.93;6.50;;;;;;;8.62;49.57;97981.58;1732570;83;21619;-65
2021/03/04 10:51:02;;;;;;;22.80;8.93;;;;;;;8.54;49.61;97986.11;1732567;83;21597;-65
2021/03/04 10:53:31;;;;;;;13.43;7.40;;;;;;;8.55;50.03;97986.94;1736147;83;21258;-65
2021/03/04 10:56:00;;;;;;;10.40;6.22;;;;;;;8.62;49.37;97976.41;1732740;83;21165;-66
2021/03/04 10:58:28;;;;;;;15.25;6.60;;;;;;;8.76;49.26;97966.15;1732614;83;21172;-65
2021/03/04 11:00:56;;;;;;;11.53;6.62;;;;;;;8.91;48.73;97964.36;1732545;83;21159;-66
2021/03/04 11:03:25;;;;;;;13.55;6.53;;;;;;;9.03;48.46;97959.42;1732572;83;21171;-66
2021/03/04 11:05:56;;;;;;;14.03;7.42;;;;;;;9.17;47.93;97951.76;1733399;83;21664;-67
2021/03/04 11:08:24;;;;;;;13.05;5.95;;;;;;;8.65;48.78;97940.36;1733013;83;21179;-64
2021/03/04 11:10:55;;;;;;;13.10;6.15;;;;;;;9.12;48.17;97937.55;1736136;83;21636;-69
2021/03/04 11:13:23;;;;;;;13.55;7.00;;;;;;;8.95;47.63;97937.72;1733215;83;21604;-64
2021/03/04 11:15:53;;;;;;;10.50;5.05;;;;;;;9.24;47.60;97939.08;1733240;83;21191;-68
2021/03/04 11:18:22;;;;;;;11.25;6.00;;;;;;;9.36;46.15;97929.75;1736407;83;21596;-64
2021/03/04 11:20:51;;;;;;;13.95;6.53;;;;;;;9.04;46.08;97923.98;1732698;83;21191;-64
2021/03/04 11:23:19;;;;;;;15.05;7.67;;;;;;;9.27;46.04;97931.03;1732430;83;21644;-64
2021/03/04 11:25:49;;;;;;;14.07;7.25;;;;;;;9.47;45.31;97911.47;1733736;83;21621;-64
2021/03/04 11:28:17;;;;;;;11.43;5.75;;;;;;;9.71;45.39;97914.11;1732386;83;21163;-63
2021/03/04 11:30:45;;;;;;;11.33;6.40;;;;;;;9.85;44.87;97908.48;1732557;83;21193;-64
2021/03/04 11:33:14;;;;;;;14.13;6.08;;;;;;;9.94;43.74;97907.66;1732580;83;21280;-64
2021/03/04 11:35:44;;;;;;;11.03;4.62;;;;;;;10.08;44.00;97901.22;1732669;83;21597;-64
2021/03/04 11:38:14;;;;;;;15.28;8.55;;;;;;;10.64;43.83;97891.59;1734959;81;21171;-64
2021/03/04 11:40:42;;;;;;;16.32;6.90;;;;;;;10.71;43.46;97885.33;1734327;83;21168;-65
2021/03/04 11:43:11;;;;;;;12.13;6.42;;;;;;;11.17;43.28;97872.16;1734206;83;21198;-64
2021/03/04 11:45:39;;;;;;;15.60;8.60;;;;;;;11.73;40.99;97871.85;1734377;83;21148;-65
2021/03/04 11:48:08;;;;;;;19.70;8.60;;;;;;;11.17;41.84;97867.44;1734495;83;21195;-65
2021/03/04 11:50:37;;;;;;;17.82;8.30;;;;;;;11.93;40.94;97865.97;1734434;83;21160;-65
2021/03/04 11:53:06;;;;;;;14.60;9.05;;;;;;;11.94;40.80;97864.19;1734815;83;21272;-62
2021/03/04 11:55:35;;;;;;;18.50;9.20;;;;;;;12.47;39.49;97855.66;1734452;83;21167;-64
2021/03/04 11:58:03;;;;;;;18.02;9.33;;;;;;;12.95;38.53;97854.19;1734480;83;21195;-65
2021/03/04 12:00:32;;;;;;;16.37;10.30;;;;;;;13.67;38.70;97837.77;1734547;83;21172;-64
2021/03/04 12:03:02;;;;;;;15.83;8.93;;;;;;;12.65;39.85;97838.61;1731573;83;21188;-64
2021/03/04 12:05:31;;;;;;;20.48;10.13;;;;;;;12.79;39.50;97840.62;1731437;83;21144;-64